sensor_id;sensor_type;location;lat;lon;timestamp;P1;durP1;ratioP1;P2;durP2;ratioP2
37529;SDS011;23374;52.758;6.872;2022-10-18T00:01:48;152.83;;;12.57;;
37529;SDS011;23374;52.758;6.872;2022-10-18T00:04:08;104.47;;;11.07;;
37529;SDS011;23374;52.758;6.872;2022-10-18T00:06:29;148.23;;;11.53;;
37529;SDS011;23374;52.758;6.872;2022-10-18T00:08:49;207.07;;;15.27;;
37529;SDS011;23374;52.758;6.872;2022-10-18T00:11:10;321.60;;;14.60;;
37529;SDS011;23374;52.758;6.872;2022-10-18T00:13:30;73.67;;;10.20;;
37529;SDS011;23374;52.758;6.872;2022-10-18T00:15:52;98.17;;;11.20;;
37529;SDS011;23374;52.758;6.872;2022-10-18T00:18:17;146.00;;;12.03;;
37529;SDS011;23374;52.758;6.872;2022-10-18T00:20:38;73.33;;;10.33;;
37529;SDS011;23374;52.758;6.872;2022-10-18T00:22:58;165.47;;;12.23;;
37529;SDS011;23374;52.758;6.872;2022-10-18T00:25:18;61.43;;;10.37;;
37529;SDS011;23374;52.758;6.872;2022-10-18T00:27:39;105.07;;;10.47;;
37529;SDS011;23374;52.758;6.872;2022-10-18T00:30:00;307.70;;;15.37;;
37529;SDS011;23374;52.758;6.872;2022-10-18T00:32:21;142.03;;;12.43;;
37529;SDS011;23374;52.758;6.872;2022-10-18T00:34:41;217.97;;;14.77;;
37529;SDS011;23374;52.758;6.872;2022-10-18T00:37:02;104.47;;;12.87;;
37529;SDS011;23374;52.758;6.872;2022-10-18T00:39:22;163.63;;;13.17;;
37529;SDS011;23374;52.758;6.872;2022-10-18T00:41:43;104.03;;;11.90;;
37529;SDS011;23374;52.758;6.872;2022-10-18T00:45:26;57.60;;;10.57;;
37529;SDS011;23374;52.758;6.872;2022-10-18T00:47:52;229.73;;;13.53;;
37529;SDS011;23374;52.758;6.872;2022-10-18T00:50:23;103.53;;;12.37;;
37529;SDS011;23374;52.758;6.872;2022-10-18T00:52:48;75.33;;;11.13;;
37529;SDS011;23374;52.758;6.872;2022-10-18T00:55:11;114.47;;;12.43;;
37529;SDS011;23374;52.758;6.872;2022-10-18T00:57:32;32.90;;;10.87;;
37529;SDS011;23374;52.758;6.872;2022-10-18T00:59:53;114.30;;;11.97;;
37529;SDS011;23374;52.758;6.872;2022-10-18T01:02:14;50.00;;;11.07;;
37529;SDS011;23374;52.758;6.872;2022-10-18T01:04:37;187.03;;;14.23;;
37529;SDS011;23374;52.758;6.872;2022-10-18T01:08:56;81.70;;;12.60;;
37529;SDS011;23374;52.758;6.872;2022-10-18T01:14:56;189.73;;;14.30;;
37529;SDS011;23374;52.758;6.872;2022-10-18T01:17:58;128.53;;;13.10;;
37529;SDS011;23374;52.758;6.872;2022-10-18T01:24:14;193.77;;;15.20;;
37529;SDS011;23374;52.758;6.872;2022-10-18T01:30:50;296.17;;;16.77;;
37529;SDS011;23374;52.758;6.872;2022-10-18T01:34:02;234.30;;;15.73;;
37529;SDS011;23374;52.758;6.872;2022-10-18T01:36:37;213.70;;;15.17;;
37529;SDS011;23374;52.758;6.872;2022-10-18T01:39:03;114.30;;;15.30;;
37529;SDS011;23374;52.758;6.872;2022-10-18T01:41:28;179.33;;;15.23;;
37529;SDS011;23374;52.758;6.872;2022-10-18T01:43:51;231.27;;;16.57;;
37529;SDS011;23374;52.758;6.872;2022-10-18T01:46:17;114.23;;;13.80;;
37529;SDS011;23374;52.758;6.872;2022-10-18T01:48:40;347.00;;;18.60;;
37529;SDS011;23374;52.758;6.872;2022-10-18T01:51:01;286.90;;;18.30;;
37529;SDS011;23374;52.758;6.872;2022-10-18T01:53:26;133.73;;;14.17;;
37529;SDS011;23374;52.758;6.872;2022-10-18T02:00:40;208.63;;;15.80;;
37529;SDS011;23374;52.758;6.872;2022-10-18T02:03:09;277.20;;;18.43;;
37529;SDS011;23374;52.758;6.872;2022-10-18T02:07:36;178.27;;;15.70;;
37529;SDS011;23374;52.758;6.872;2022-10-18T02:11:36;252.20;;;17.17;;
37529;SDS011;23374;52.758;6.872;2022-10-18T02:14:06;171.13;;;14.60;;
37529;SDS011;23374;52.758;6.872;2022-10-18T02:16:39;183.23;;;15.53;;
37529;SDS011;23374;52.758;6.872;2022-10-18T02:19:31;285.90;;;16.83;;
37529;SDS011;23374;52.758;6.872;2022-10-18T02:21:57;217.30;;;16.40;;
37529;SDS011;23374;52.758;6.872;2022-10-18T02:24:19;169.20;;;14.47;;
37529;SDS011;23374;52.758;6.872;2022-10-18T02:26:42;395.87;;;18.83;;
37529;SDS011;23374;52.758;6.872;2022-10-18T02:29:03;120.57;;;13.30;;
37529;SDS011;23374;52.758;6.872;2022-10-18T02:31:35;171.80;;;14.80;;
37529;SDS011;23374;52.758;6.872;2022-10-18T02:34:16;253.20;;;16.07;;
37529;SDS011;23374;52.758;6.872;2022-10-18T02:36:59;147.57;;;14.50;;
37529;SDS011;23374;52.758;6.872;2022-10-18T02:39:29;368.20;;;18.13;;
37529;SDS011;23374;52.758;6.872;2022-10-18T02:41:55;421.97;;;18.43;;
37529;SDS011;23374;52.758;6.872;2022-10-18T02:44:16;332.93;;;18.47;;
37529;SDS011;23374;52.758;6.872;2022-10-18T02:46:36;410.87;;;19.40;;
37529;SDS011;23374;52.758;6.872;2022-10-18T02:48:58;380.97;;;18.23;;
37529;SDS011;23374;52.758;6.872;2022-10-18T02:51:19;214.30;;;14.43;;
37529;SDS011;23374;52.758;6.872;2022-10-18T02:53:39;207.17;;;14.47;;
37529;SDS011;23374;52.758;6.872;2022-10-18T02:55:59;242.83;;;16.13;;
37529;SDS011;23374;52.758;6.872;2022-10-18T02:58:19;124.37;;;13.83;;
37529;SDS011;23374;52.758;6.872;2022-10-18T03:00:40;103.83;;;12.53;;
37529;SDS011;23374;52.758;6.872;2022-10-18T03:03:00;125.40;;;13.73;;
37529;SDS011;23374;52.758;6.872;2022-10-18T03:05:20;93.97;;;13.17;;
37529;SDS011;23374;52.758;6.872;2022-10-18T03:07:40;97.43;;;13.10;;
37529;SDS011;23374;52.758;6.872;2022-10-18T03:10:00;61.07;;;12.03;;
37529;SDS011;23374;52.758;6.872;2022-10-18T03:12:20;120.77;;;14.17;;
37529;SDS011;23374;52.758;6.872;2022-10-18T03:14:40;61.17;;;12.80;;
37529;SDS011;23374;52.758;6.872;2022-10-18T03:17:00;78.17;;;13.77;;
37529;SDS011;23374;52.758;6.872;2022-10-18T03:19:20;69.17;;;12.33;;
37529;SDS011;23374;52.758;6.872;2022-10-18T03:21:41;90.80;;;13.83;;
37529;SDS011;23374;52.758;6.872;2022-10-18T03:24:01;101.40;;;12.90;;
37529;SDS011;23374;52.758;6.872;2022-10-18T03:26:22;129.67;;;13.10;;
37529;SDS011;23374;52.758;6.872;2022-10-18T03:28:42;91.63;;;12.67;;
37529;SDS011;23374;52.758;6.872;2022-10-18T03:31:03;77.33;;;12.63;;
37529;SDS011;23374;52.758;6.872;2022-10-18T03:33:23;96.27;;;14.73;;
37529;SDS011;23374;52.758;6.872;2022-10-18T03:35:44;104.47;;;13.27;;
37529;SDS011;23374;52.758;6.872;2022-10-18T03:38:04;101.70;;;14.10;;
37529;SDS011;23374;52.758;6.872;2022-10-18T03:40:24;132.77;;;14.70;;
37529;SDS011;23374;52.758;6.872;2022-10-18T03:42:45;153.73;;;14.97;;
37529;SDS011;23374;52.758;6.872;2022-10-18T03:45:06;151.60;;;15.20;;
37529;SDS011;23374;52.758;6.872;2022-10-18T03:47:27;110.13;;;14.77;;
37529;SDS011;23374;52.758;6.872;2022-10-18T03:49:47;148.10;;;15.40;;
37529;SDS011;23374;52.758;6.872;2022-10-18T03:52:08;176.97;;;15.77;;
37529;SDS011;23374;52.758;6.872;2022-10-18T03:54:28;205.70;;;15.17;;
37529;SDS011;23374;52.758;6.872;2022-10-18T03:56:49;223.07;;;14.67;;
37529;SDS011;23374;52.758;6.872;2022-10-18T03:59:09;189.97;;;14.63;;
37529;SDS011;23374;52.758;6.872;2022-10-18T04:01:29;200.97;;;15.30;;
37529;SDS011;23374;52.758;6.872;2022-10-18T04:03:49;138.90;;;14.23;;
37529;SDS011;23374;52.758;6.872;2022-10-18T04:06:10;167.80;;;14.77;;
37529;SDS011;23374;52.758;6.872;2022-10-18T04:08:30;164.53;;;14.33;;
37529;SDS011;23374;52.758;6.872;2022-10-18T04:10:50;118.57;;;13.67;;
37529;SDS011;23374;52.758;6.872;2022-10-18T04:13:11;151.70;;;13.63;;
37529;SDS011;23374;52.758;6.872;2022-10-18T04:15:32;181.27;;;13.57;;
37529;SDS011;23374;52.758;6.872;2022-10-18T04:17:52;101.77;;;12.80;;
37529;SDS011;23374;52.758;6.872;2022-10-18T04:20:12;205.27;;;13.70;;
37529;SDS011;23374;52.758;6.872;2022-10-18T04:22:33;132.27;;;13.63;;
37529;SDS011;23374;52.758;6.872;2022-10-18T04:24:53;137.77;;;13.93;;
37529;SDS011;23374;52.758;6.872;2022-10-18T04:27:15;185.87;;;14.00;;
37529;SDS011;23374;52.758;6.872;2022-10-18T04:29:35;108.13;;;13.27;;
37529;SDS011;23374;52.758;6.872;2022-10-18T04:31:55;116.53;;;12.47;;
37529;SDS011;23374;52.758;6.872;2022-10-18T04:34:16;169.97;;;14.30;;
37529;SDS011;23374;52.758;6.872;2022-10-18T04:36:36;124.10;;;12.40;;
37529;SDS011;23374;52.758;6.872;2022-10-18T04:38:56;103.57;;;12.17;;
37529;SDS011;23374;52.758;6.872;2022-10-18T04:41:17;139.57;;;13.80;;
37529;SDS011;23374;52.758;6.872;2022-10-18T04:43:37;83.63;;;12.33;;
37529;SDS011;23374;52.758;6.872;2022-10-18T04:45:58;90.63;;;12.00;;
37529;SDS011;23374;52.758;6.872;2022-10-18T04:48:19;78.77;;;11.13;;
37529;SDS011;23374;52.758;6.872;2022-10-18T04:50:39;130.33;;;12.70;;
37529;SDS011;23374;52.758;6.872;2022-10-18T04:52:59;140.03;;;12.33;;
37529;SDS011;23374;52.758;6.872;2022-10-18T04:55:19;131.07;;;11.77;;
37529;SDS011;23374;52.758;6.872;2022-10-18T04:57:40;111.73;;;13.00;;
37529;SDS011;23374;52.758;6.872;2022-10-18T05:00:00;142.70;;;13.67;;
37529;SDS011;23374;52.758;6.872;2022-10-18T05:02:20;94.07;;;12.63;;
37529;SDS011;23374;52.758;6.872;2022-10-18T05:04:40;89.77;;;11.77;;
37529;SDS011;23374;52.758;6.872;2022-10-18T05:07:01;90.03;;;11.83;;
37529;SDS011;23374;52.758;6.872;2022-10-18T05:09:21;136.87;;;12.97;;
37529;SDS011;23374;52.758;6.872;2022-10-18T05:11:43;83.80;;;11.73;;
37529;SDS011;23374;52.758;6.872;2022-10-18T05:14:03;78.87;;;11.90;;
37529;SDS011;23374;52.758;6.872;2022-10-18T05:16:24;123.07;;;13.63;;
37529;SDS011;23374;52.758;6.872;2022-10-18T05:18:47;86.30;;;11.63;;
37529;SDS011;23374;52.758;6.872;2022-10-18T05:21:07;81.83;;;11.73;;
37529;SDS011;23374;52.758;6.872;2022-10-18T05:23:27;85.87;;;11.60;;
37529;SDS011;23374;52.758;6.872;2022-10-18T05:25:48;74.77;;;12.07;;
37529;SDS011;23374;52.758;6.872;2022-10-18T05:28:09;50.87;;;12.13;;
37529;SDS011;23374;52.758;6.872;2022-10-18T05:30:29;106.03;;;12.03;;
37529;SDS011;23374;52.758;6.872;2022-10-18T05:32:50;112.57;;;12.67;;
37529;SDS011;23374;52.758;6.872;2022-10-18T05:35:10;67.37;;;10.97;;
37529;SDS011;23374;52.758;6.872;2022-10-18T05:37:30;71.00;;;10.97;;
37529;SDS011;23374;52.758;6.872;2022-10-18T05:39:50;87.30;;;12.07;;
37529;SDS011;23374;52.758;6.872;2022-10-18T05:42:10;56.27;;;11.23;;
37529;SDS011;23374;52.758;6.872;2022-10-18T05:44:31;91.80;;;11.43;;
37529;SDS011;23374;52.758;6.872;2022-10-18T05:46:51;164.97;;;12.33;;
37529;SDS011;23374;52.758;6.872;2022-10-18T05:49:12;69.17;;;11.00;;
37529;SDS011;23374;52.758;6.872;2022-10-18T05:51:32;55.93;;;9.83;;
37529;SDS011;23374;52.758;6.872;2022-10-18T05:53:52;85.17;;;10.67;;
37529;SDS011;23374;52.758;6.872;2022-10-18T05:56:13;65.67;;;10.03;;
37529;SDS011;23374;52.758;6.872;2022-10-18T05:58:34;47.20;;;9.97;;
37529;SDS011;23374;52.758;6.872;2022-10-18T06:00:57;63.50;;;10.53;;
37529;SDS011;23374;52.758;6.872;2022-10-18T06:03:19;49.23;;;9.60;;
37529;SDS011;23374;52.758;6.872;2022-10-18T06:05:39;45.37;;;8.60;;
37529;SDS011;23374;52.758;6.872;2022-10-18T06:08:00;36.97;;;8.90;;
37529;SDS011;23374;52.758;6.872;2022-10-18T06:10:20;40.73;;;9.27;;
37529;SDS011;23374;52.758;6.872;2022-10-18T06:12:41;39.47;;;8.40;;
37529;SDS011;23374;52.758;6.872;2022-10-18T06:15:02;51.80;;;8.67;;
37529;SDS011;23374;52.758;6.872;2022-10-18T06:17:23;48.23;;;9.13;;
37529;SDS011;23374;52.758;6.872;2022-10-18T06:19:43;103.67;;;10.03;;
37529;SDS011;23374;52.758;6.872;2022-10-18T06:22:04;32.10;;;9.13;;
37529;SDS011;23374;52.758;6.872;2022-10-18T06:24:24;76.70;;;9.37;;
37529;SDS011;23374;52.758;6.872;2022-10-18T06:26:45;76.40;;;10.37;;
37529;SDS011;23374;52.758;6.872;2022-10-18T06:29:05;56.77;;;10.17;;
37529;SDS011;23374;52.758;6.872;2022-10-18T06:31:26;30.50;;;8.57;;
37529;SDS011;23374;52.758;6.872;2022-10-18T06:33:46;41.30;;;8.83;;
37529;SDS011;23374;52.758;6.872;2022-10-18T06:36:16;52.20;;;9.50;;
37529;SDS011;23374;52.758;6.872;2022-10-18T06:38:38;101.33;;;10.27;;
37529;SDS011;23374;52.758;6.872;2022-10-18T06:40:59;74.70;;;9.17;;
37529;SDS011;23374;52.758;6.872;2022-10-18T06:43:20;40.47;;;8.63;;
37529;SDS011;23374;52.758;6.872;2022-10-18T06:45:40;65.50;;;9.37;;
37529;SDS011;23374;52.758;6.872;2022-10-18T06:48:00;78.87;;;9.50;;
37529;SDS011;23374;52.758;6.872;2022-10-18T06:50:21;136.87;;;10.50;;
37529;SDS011;23374;52.758;6.872;2022-10-18T06:52:41;87.50;;;9.07;;
37529;SDS011;23374;52.758;6.872;2022-10-18T06:55:02;106.40;;;9.30;;
37529;SDS011;23374;52.758;6.872;2022-10-18T06:57:22;45.57;;;8.60;;
37529;SDS011;23374;52.758;6.872;2022-10-18T06:59:43;137.27;;;11.23;;
37529;SDS011;23374;52.758;6.872;2022-10-18T07:02:03;88.67;;;9.17;;
37529;SDS011;23374;52.758;6.872;2022-10-18T07:04:23;49.27;;;7.67;;
37529;SDS011;23374;52.758;6.872;2022-10-18T07:06:48;56.47;;;7.97;;
37529;SDS011;23374;52.758;6.872;2022-10-18T07:09:08;83.57;;;9.37;;
37529;SDS011;23374;52.758;6.872;2022-10-18T07:11:28;135.93;;;9.87;;
37529;SDS011;23374;52.758;6.872;2022-10-18T07:13:48;103.57;;;8.73;;
37529;SDS011;23374;52.758;6.872;2022-10-18T07:16:11;118.67;;;9.00;;
37529;SDS011;23374;52.758;6.872;2022-10-18T07:18:38;98.43;;;9.33;;
37529;SDS011;23374;52.758;6.872;2022-10-18T07:21:04;64.77;;;8.57;;
37529;SDS011;23374;52.758;6.872;2022-10-18T07:23:26;75.17;;;9.00;;
37529;SDS011;23374;52.758;6.872;2022-10-18T07:25:46;39.60;;;8.73;;
37529;SDS011;23374;52.758;6.872;2022-10-18T07:28:06;70.77;;;8.83;;
37529;SDS011;23374;52.758;6.872;2022-10-18T07:30:26;99.83;;;10.10;;
37529;SDS011;23374;52.758;6.872;2022-10-18T07:32:46;109.57;;;9.50;;
37529;SDS011;23374;52.758;6.872;2022-10-18T07:35:07;111.37;;;8.87;;
37529;SDS011;23374;52.758;6.872;2022-10-18T07:37:27;45.27;;;7.53;;
37529;SDS011;23374;52.758;6.872;2022-10-18T07:39:48;58.93;;;7.30;;
37529;SDS011;23374;52.758;6.872;2022-10-18T07:42:09;53.40;;;8.57;;
37529;SDS011;23374;52.758;6.872;2022-10-18T07:44:29;84.97;;;8.50;;
37529;SDS011;23374;52.758;6.872;2022-10-18T07:46:49;34.20;;;6.87;;
37529;SDS011;23374;52.758;6.872;2022-10-18T07:49:09;29.27;;;6.77;;
37529;SDS011;23374;52.758;6.872;2022-10-18T07:51:29;53.57;;;7.43;;
37529;SDS011;23374;52.758;6.872;2022-10-18T07:53:51;101.57;;;8.70;;
37529;SDS011;23374;52.758;6.872;2022-10-18T07:56:14;50.37;;;8.47;;
37529;SDS011;23374;52.758;6.872;2022-10-18T07:58:38;34.03;;;6.37;;
37529;SDS011;23374;52.758;6.872;2022-10-18T08:01:03;41.67;;;7.23;;
37529;SDS011;23374;52.758;6.872;2022-10-18T08:03:24;121.90;;;10.10;;
37529;SDS011;23374;52.758;6.872;2022-10-18T08:05:50;115.63;;;8.87;;
37529;SDS011;23374;52.758;6.872;2022-10-18T08:08:13;35.90;;;7.00;;
37529;SDS011;23374;52.758;6.872;2022-10-18T08:10:34;36.03;;;7.30;;
37529;SDS011;23374;52.758;6.872;2022-10-18T08:12:54;76.40;;;8.00;;
37529;SDS011;23374;52.758;6.872;2022-10-18T08:15:14;71.17;;;8.07;;
37529;SDS011;23374;52.758;6.872;2022-10-18T08:17:35;90.90;;;10.10;;
37529;SDS011;23374;52.758;6.872;2022-10-18T08:19:55;82.90;;;8.87;;
37529;SDS011;23374;52.758;6.872;2022-10-18T08:22:15;53.07;;;8.50;;
37529;SDS011;23374;52.758;6.872;2022-10-18T08:24:35;37.73;;;8.93;;
37529;SDS011;23374;52.758;6.872;2022-10-18T08:26:55;54.97;;;8.50;;
37529;SDS011;23374;52.758;6.872;2022-10-18T08:29:15;44.37;;;9.10;;
37529;SDS011;23374;52.758;6.872;2022-10-18T08:31:35;44.43;;;8.43;;
37529;SDS011;23374;52.758;6.872;2022-10-18T08:33:56;81.80;;;10.90;;
37529;SDS011;23374;52.758;6.872;2022-10-18T08:36:16;50.93;;;9.47;;
37529;SDS011;23374;52.758;6.872;2022-10-18T08:38:39;22.27;;;7.67;;
37529;SDS011;23374;52.758;6.872;2022-10-18T08:41:09;33.70;;;7.63;;
37529;SDS011;23374;52.758;6.872;2022-10-18T08:44:29;21.03;;;7.60;;
37529;SDS011;23374;52.758;6.872;2022-10-18T08:46:54;36.47;;;7.90;;
37529;SDS011;23374;52.758;6.872;2022-10-18T08:50:16;21.13;;;7.20;;
37529;SDS011;23374;52.758;6.872;2022-10-18T08:52:58;22.47;;;7.17;;
37529;SDS011;23374;52.758;6.872;2022-10-18T08:59:50;13.73;;;6.77;;
37529;SDS011;23374;52.758;6.872;2022-10-18T09:29:17;13.63;;;7.13;;
37529;SDS011;23374;52.758;6.872;2022-10-18T09:33:53;13.03;;;6.67;;
37529;SDS011;23374;52.758;6.872;2022-10-18T09:36:36;17.97;;;8.20;;
37529;SDS011;23374;52.758;6.872;2022-10-18T09:38:58;20.30;;;8.67;;
37529;SDS011;23374;52.758;6.872;2022-10-18T09:41:33;16.03;;;7.40;;
37529;SDS011;23374;52.758;6.872;2022-10-18T09:44:37;19.47;;;7.73;;
37529;SDS011;23374;52.758;6.872;2022-10-18T09:47:15;16.17;;;7.40;;
37529;SDS011;23374;52.758;6.872;2022-10-18T09:49:42;17.00;;;7.70;;
37529;SDS011;23374;52.758;6.872;2022-10-18T09:52:10;21.37;;;7.50;;
37529;SDS011;23374;52.758;6.872;2022-10-18T09:54:41;12.23;;;7.70;;
37529;SDS011;23374;52.758;6.872;2022-10-18T09:57:19;20.27;;;7.57;;
37529;SDS011;23374;52.758;6.872;2022-10-18T09:59:52;19.30;;;7.47;;
37529;SDS011;23374;52.758;6.872;2022-10-18T10:02:14;18.50;;;7.40;;
37529;SDS011;23374;52.758;6.872;2022-10-18T10:04:36;16.30;;;8.10;;
37529;SDS011;23374;52.758;6.872;2022-10-18T10:06:59;16.57;;;7.97;;
37529;SDS011;23374;52.758;6.872;2022-10-18T10:09:35;25.63;;;9.03;;
37529;SDS011;23374;52.758;6.872;2022-10-18T10:12:33;19.70;;;7.83;;
37529;SDS011;23374;52.758;6.872;2022-10-18T10:19:55;22.40;;;8.10;;
37529;SDS011;23374;52.758;6.872;2022-10-18T10:22:39;22.37;;;8.10;;
37529;SDS011;23374;52.758;6.872;2022-10-18T10:25:01;17.97;;;7.50;;
37529;SDS011;23374;52.758;6.872;2022-10-18T10:27:32;20.67;;;7.77;;
37529;SDS011;23374;52.758;6.872;2022-10-18T10:30:03;13.53;;;6.90;;
37529;SDS011;23374;52.758;6.872;2022-10-18T10:32:45;21.57;;;7.20;;
37529;SDS011;23374;52.758;6.872;2022-10-18T10:35:30;19.53;;;7.70;;
37529;SDS011;23374;52.758;6.872;2022-10-18T10:37:55;20.17;;;6.77;;
37529;SDS011;23374;52.758;6.872;2022-10-18T10:40:19;16.17;;;7.10;;
37529;SDS011;23374;52.758;6.872;2022-10-18T10:42:56;21.57;;;7.03;;
37529;SDS011;23374;52.758;6.872;2022-10-18T10:45:20;15.67;;;6.70;;
37529;SDS011;23374;52.758;6.872;2022-10-18T10:47:42;16.77;;;7.03;;
37529;SDS011;23374;52.758;6.872;2022-10-18T10:50:11;19.83;;;6.33;;
37529;SDS011;23374;52.758;6.872;2022-10-18T10:52:32;24.57;;;7.03;;
37529;SDS011;23374;52.758;6.872;2022-10-18T10:54:53;16.13;;;6.70;;
37529;SDS011;23374;52.758;6.872;2022-10-18T10:57:20;21.03;;;6.70;;
37529;SDS011;23374;52.758;6.872;2022-10-18T10:59:51;14.70;;;4.10;;
37529;SDS011;23374;52.758;6.872;2022-10-18T11:02:31;11.37;;;3.13;;
37529;SDS011;23374;52.758;6.872;2022-10-18T11:04:54;21.60;;;3.67;;
37529;SDS011;23374;52.758;6.872;2022-10-18T11:08:17;12.03;;;2.90;;
37529;SDS011;23374;52.758;6.872;2022-10-18T11:13:53;11.23;;;2.50;;
37529;SDS011;23374;52.758;6.872;2022-10-18T11:16:41;13.83;;;2.87;;
37529;SDS011;23374;52.758;6.872;2022-10-18T11:20:12;7.43;;;1.70;;
37529;SDS011;23374;52.758;6.872;2022-10-18T11:23:02;11.67;;;2.20;;
37529;SDS011;23374;52.758;6.872;2022-10-18T11:25:33;11.57;;;1.80;;
37529;SDS011;23374;52.758;6.872;2022-10-18T11:28:10;7.63;;;2.10;;
37529;SDS011;23374;52.758;6.872;2022-10-18T11:31:13;7.13;;;1.90;;
37529;SDS011;23374;52.758;6.872;2022-10-18T11:39:15;7.23;;;1.40;;
37529;SDS011;23374;52.758;6.872;2022-10-18T11:50:28;6.67;;;1.27;;
37529;SDS011;23374;52.758;6.872;2022-10-18T11:53:14;6.73;;;1.50;;
37529;SDS011;23374;52.758;6.872;2022-10-18T11:56:23;4.43;;;1.20;;
37529;SDS011;23374;52.758;6.872;2022-10-18T11:59:10;6.70;;;1.20;;
37529;SDS011;23374;52.758;6.872;2022-10-18T12:07:31;1.73;;;0.90;;
37529;SDS011;23374;52.758;6.872;2022-10-18T12:10:00;8.27;;;1.30;;
37529;SDS011;23374;52.758;6.872;2022-10-18T12:12:30;5.07;;;0.97;;
37529;SDS011;23374;52.758;6.872;2022-10-18T12:15:06;3.27;;;1.03;;
37529;SDS011;23374;52.758;6.872;2022-10-18T12:17:38;9.43;;;1.50;;
37529;SDS011;23374;52.758;6.872;2022-10-18T12:26:50;5.80;;;1.00;;
37529;SDS011;23374;52.758;6.872;2022-10-18T12:30:03;5.17;;;0.90;;
37529;SDS011;23374;52.758;6.872;2022-10-18T12:32:33;8.43;;;1.20;;
37529;SDS011;23374;52.758;6.872;2022-10-18T12:35:12;6.07;;;1.13;;
37529;SDS011;23374;52.758;6.872;2022-10-18T12:39:12;1.53;;;0.60;;
37529;SDS011;23374;52.758;6.872;2022-10-18T12:42:55;2.40;;;0.57;;
37529;SDS011;23374;52.758;6.872;2022-10-18T12:45:30;8.33;;;1.30;;
37529;SDS011;23374;52.758;6.872;2022-10-18T12:47:58;5.80;;;1.20;;
37529;SDS011;23374;52.758;6.872;2022-10-18T12:50:32;6.03;;;0.93;;
37529;SDS011;23374;52.758;6.872;2022-10-18T12:53:16;6.47;;;0.80;;
37529;SDS011;23374;52.758;6.872;2022-10-18T12:55:40;6.27;;;1.03;;
37529;SDS011;23374;52.758;6.872;2022-10-18T12:59:54;8.80;;;1.47;;
37529;SDS011;23374;52.758;6.872;2022-10-18T13:02:22;7.27;;;0.80;;
37529;SDS011;23374;52.758;6.872;2022-10-18T13:04:46;3.63;;;0.83;;
37529;SDS011;23374;52.758;6.872;2022-10-18T13:07:16;2.83;;;0.80;;
37529;SDS011;23374;52.758;6.872;2022-10-18T13:09:41;3.03;;;0.80;;
37529;SDS011;23374;52.758;6.872;2022-10-18T13:13:19;5.03;;;1.03;;
37529;SDS011;23374;52.758;6.872;2022-10-18T13:16:01;5.20;;;0.83;;
37529;SDS011;23374;52.758;6.872;2022-10-18T13:20:48;4.30;;;1.07;;
37529;SDS011;23374;52.758;6.872;2022-10-18T13:24:41;4.00;;;0.93;;
37529;SDS011;23374;52.758;6.872;2022-10-18T13:28:51;3.90;;;1.00;;
37529;SDS011;23374;52.758;6.872;2022-10-18T13:39:18;2.17;;;0.60;;
37529;SDS011;23374;52.758;6.872;2022-10-18T13:42:29;4.23;;;1.07;;
37529;SDS011;23374;52.758;6.872;2022-10-18T13:44:51;4.20;;;1.00;;
37529;SDS011;23374;52.758;6.872;2022-10-18T13:47:31;6.97;;;1.00;;
37529;SDS011;23374;52.758;6.872;2022-10-18T13:50:01;6.47;;;0.97;;
37529;SDS011;23374;52.758;6.872;2022-10-18T13:55:55;1.97;;;0.80;;
37529;SDS011;23374;52.758;6.872;2022-10-18T14:01:14;4.83;;;0.80;;
37529;SDS011;23374;52.758;6.872;2022-10-18T14:06:49;2.83;;;0.90;;
37529;SDS011;23374;52.758;6.872;2022-10-18T14:09:15;2.20;;;0.60;;
37529;SDS011;23374;52.758;6.872;2022-10-18T14:11:48;1.53;;;0.67;;
37529;SDS011;23374;52.758;6.872;2022-10-18T14:15:08;4.10;;;1.07;;
37529;SDS011;23374;52.758;6.872;2022-10-18T14:18:05;4.57;;;0.97;;
37529;SDS011;23374;52.758;6.872;2022-10-18T14:20:37;3.80;;;0.77;;
37529;SDS011;23374;52.758;6.872;2022-10-18T14:23:43;5.60;;;0.93;;
37529;SDS011;23374;52.758;6.872;2022-10-18T14:26:14;3.33;;;0.73;;
37529;SDS011;23374;52.758;6.872;2022-10-18T14:28:36;11.03;;;0.93;;
37529;SDS011;23374;52.758;6.872;2022-10-18T14:31:02;7.23;;;1.10;;
37529;SDS011;23374;52.758;6.872;2022-10-18T14:33:53;1.83;;;0.67;;
37529;SDS011;23374;52.758;6.872;2022-10-18T14:36:24;5.27;;;0.70;;
37529;SDS011;23374;52.758;6.872;2022-10-18T14:38:54;7.13;;;0.70;;
37529;SDS011;23374;52.758;6.872;2022-10-18T14:41:28;8.23;;;1.00;;
37529;SDS011;23374;52.758;6.872;2022-10-18T14:44:18;4.60;;;0.80;;
37529;SDS011;23374;52.758;6.872;2022-10-18T14:53:32;7.63;;;0.90;;
37529;SDS011;23374;52.758;6.872;2022-10-18T14:55:58;6.13;;;0.90;;
37529;SDS011;23374;52.758;6.872;2022-10-18T14:58:19;2.90;;;0.67;;
37529;SDS011;23374;52.758;6.872;2022-10-18T15:00:40;7.17;;;1.07;;
37529;SDS011;23374;52.758;6.872;2022-10-18T15:03:02;1.13;;;0.70;;
37529;SDS011;23374;52.758;6.872;2022-10-18T15:05:25;7.10;;;0.80;;
37529;SDS011;23374;52.758;6.872;2022-10-18T15:07:46;3.30;;;0.70;;
37529;SDS011;23374;52.758;6.872;2022-10-18T15:10:31;3.93;;;0.90;;
37529;SDS011;23374;52.758;6.872;2022-10-18T15:12:53;3.93;;;0.80;;
37529;SDS011;23374;52.758;6.872;2022-10-18T15:15:26;8.30;;;1.23;;
37529;SDS011;23374;52.758;6.872;2022-10-18T15:17:49;7.47;;;1.13;;
37529;SDS011;23374;52.758;6.872;2022-10-18T15:20:22;3.90;;;1.37;;
37529;SDS011;23374;52.758;6.872;2022-10-18T15:22:51;4.33;;;1.10;;
37529;SDS011;23374;52.758;6.872;2022-10-18T15:25:20;5.47;;;0.77;;
37529;SDS011;23374;52.758;6.872;2022-10-18T15:27:53;4.20;;;0.90;;
37529;SDS011;23374;52.758;6.872;2022-10-18T15:30:41;5.57;;;0.90;;
37529;SDS011;23374;52.758;6.872;2022-10-18T15:33:03;11.27;;;1.10;;
37529;SDS011;23374;52.758;6.872;2022-10-18T15:35:33;6.27;;;1.20;;
37529;SDS011;23374;52.758;6.872;2022-10-18T15:37:56;1.43;;;0.80;;
37529;SDS011;23374;52.758;6.872;2022-10-18T15:40:33;2.80;;;0.90;;
37529;SDS011;23374;52.758;6.872;2022-10-18T15:42:57;3.20;;;0.70;;
37529;SDS011;23374;52.758;6.872;2022-10-18T15:45:38;6.60;;;0.90;;
37529;SDS011;23374;52.758;6.872;2022-10-18T15:48:17;4.53;;;0.70;;
37529;SDS011;23374;52.758;6.872;2022-10-18T15:50:59;5.13;;;1.03;;
37529;SDS011;23374;52.758;6.872;2022-10-18T15:53:44;4.47;;;0.77;;
37529;SDS011;23374;52.758;6.872;2022-10-18T15:59:56;6.67;;;1.23;;
37529;SDS011;23374;52.758;6.872;2022-10-18T16:02:23;3.10;;;0.90;;
37529;SDS011;23374;52.758;6.872;2022-10-18T16:04:44;3.30;;;0.97;;
37529;SDS011;23374;52.758;6.872;2022-10-18T16:07:09;5.27;;;0.80;;
37529;SDS011;23374;52.758;6.872;2022-10-18T16:09:30;4.53;;;0.97;;
37529;SDS011;23374;52.758;6.872;2022-10-18T16:11:51;5.30;;;0.93;;
37529;SDS011;23374;52.758;6.872;2022-10-18T16:14:11;2.07;;;0.60;;
37529;SDS011;23374;52.758;6.872;2022-10-18T16:16:32;7.10;;;1.20;;
37529;SDS011;23374;52.758;6.872;2022-10-18T16:18:52;8.47;;;0.87;;
37529;SDS011;23374;52.758;6.872;2022-10-18T16:21:19;4.03;;;0.80;;
37529;SDS011;23374;52.758;6.872;2022-10-18T16:23:42;4.23;;;1.10;;
37529;SDS011;23374;52.758;6.872;2022-10-18T16:26:03;6.57;;;0.90;;
37529;SDS011;23374;52.758;6.872;2022-10-18T16:28:26;9.53;;;1.27;;
37529;SDS011;23374;52.758;6.872;2022-10-18T16:31:00;7.33;;;1.30;;
37529;SDS011;23374;52.758;6.872;2022-10-18T16:33:23;6.10;;;1.27;;
37529;SDS011;23374;52.758;6.872;2022-10-18T16:35:43;3.60;;;1.10;;
37529;SDS011;23374;52.758;6.872;2022-10-18T16:38:04;4.67;;;0.90;;